Terminal Aerodrome Forecast
Issued by NWS Sterling, VA

Home | Current Version | Previous Version | Text Only | Print | Product List | Glossary On
Versions: 1 2 3 4 5 6 7 8 9 10 11 12 13 14 15 16 17 18 19 20 21 22 23 24
060
FTUS41 KLWX 282049 AAB
TAFBWI
TAF AMD
KBWI 282049Z 2821/2924 33008KT 2SM TSRA BR FEW007 OVC035CB
     FM282200 27008KT 5SM BR BKN035
     FM290300 11004KT 5SM TSRA OVC060CB
     FM290600 13005KT 3SM SHRA OVC045
     FM291100 26005KT P6SM SHRA OVC045
     FM291500 32010KT P6SM OVC040
     FM292300 36005KT P6SM BKN050=

USA.gov is the U.S. government's official web portal to all federal, state and local government web resources and services.